Time;durP1;ratioP1;P1;durP2;ratioP2;P2;SDS_P1;SDS_P2;PMS_P1;PMS_P2;Temp;Humidity;BMP_temperature;BMP_pressure;BME280_temperature;BME280_humidity;BME280_pressure;Samples;Min_cycle;Max_cycle;Signal;HPM_P1;HPM_P2
2022/01/29 00:01:53;;;;;;;10.75;6.75;;;;;;;6.16;51.44;101430.02;1762473;80;21086;-68
2022/01/29 00:04:20;;;;;;;8.28;6.87;;;;;;;6.17;51.56;101433.05;1767955;80;21062;-69
2022/01/29 00:06:46;;;;;;;9.70;7.33;;;;;;;6.17;51.75;101441.22;1763656;80;21550;-68
2022/01/29 00:09:15;;;;;;;7.70;5.83;;;;;;;6.18;51.92;101437.34;1752765;80;21030;-69
2022/01/29 00:11:43;;;;;;;8.00;6.53;;;;;;;6.18;52.09;101436.05;1750944;80;21102;-69
2022/01/29 00:14:09;;;;;;;7.17;6.03;;;;;;;6.20;52.16;101433.05;1717866;81;21168;-69
2022/01/29 00:16:36;;;;;;;7.80;6.28;;;;;;;6.22;52.24;101439.09;1721313;81;21073;-69
2022/01/29 00:19:03;;;;;;;7.20;5.97;;;;;;;6.24;52.46;101442.59;1738856;81;21014;-69
2022/01/29 00:21:30;;;;;;;6.05;5.40;;;;;;;6.26;52.69;101439.59;1746691;81;21045;-70
2022/01/29 00:23:56;;;;;;;6.05;5.33;;;;;;;6.30;52.82;101449.09;1742394;81;21062;-69
2022/01/29 00:26:25;;;;;;;5.95;5.12;;;;;;;6.33;52.91;101449.09;1730236;81;21042;-69
2022/01/29 00:28:51;;;;;;;5.80;5.08;;;;;;;6.36;52.92;101454.72;1733586;81;21019;-69
2022/01/29 00:31:18;;;;;;;7.05;5.40;;;;;;;6.38;52.93;101455.59;1742134;81;21017;-69
2022/01/29 00:33:45;;;;;;;5.70;5.03;;;;;;;6.38;52.93;101452.58;1733062;81;21030;-69
2022/01/29 00:36:11;;;;;;;6.35;4.72;;;;;;;6.40;53.04;101462.50;1737823;82;22110;-69
2022/01/29 00:38:38;;;;;;;5.45;4.47;;;;;;;6.41;53.15;101453.87;1725520;81;21514;-68
2022/01/29 00:41:06;;;;;;;5.17;4.25;;;;;;;6.42;53.22;101458.21;1738786;81;21603;-68
2022/01/29 00:43:34;;;;;;;5.08;4.28;;;;;;;6.43;53.26;101459.05;1730200;81;21074;-68
2022/01/29 00:46:00;;;;;;;5.20;4.33;;;;;;;6.42;53.27;101451.75;1726208;81;21486;-69
2022/01/29 00:48:27;;;;;;;4.42;4.03;;;;;;;6.42;53.26;101460.80;1738237;81;21034;-69
2022/01/29 00:50:53;;;;;;;5.03;4.22;;;;;;;6.39;53.32;101454.30;1735768;81;21027;-69
2022/01/29 00:53:19;;;;;;;5.00;4.50;;;;;;;6.37;53.42;101452.13;1729291;81;21113;-68
2022/01/29 00:55:46;;;;;;;4.75;4.05;;;;;;;6.36;53.51;101453.00;1742680;81;20982;-68
2022/01/29 00:58:13;;;;;;;4.30;3.90;;;;;;;6.37;53.58;101459.88;1738039;81;21015;-68
2022/01/29 01:00:39;;;;;;;4.25;3.33;;;;;;;6.37;53.62;101457.30;1744042;81;21061;-68
2022/01/29 01:03:06;;;;;;;4.97;3.90;;;;;;;6.37;53.63;101470.23;1732687;81;21156;-69
2022/01/29 01:05:33;;;;;;;4.08;3.33;;;;;;;6.37;53.68;101466.34;1727913;81;21537;-69
2022/01/29 01:07:59;;;;;;;4.65;3.92;;;;;;;6.36;53.73;101474.97;1747252;81;21506;-69
2022/01/29 01:10:26;;;;;;;5.10;3.35;;;;;;;6.35;53.85;101480.98;1728889;80;21529;-69
2022/01/29 01:12:52;;;;;;;4.15;3.35;;;;;;;6.36;53.94;101477.98;1745753;80;21045;-70
2022/01/29 01:15:19;;;;;;;3.62;3.27;;;;;;;6.37;54.07;101477.98;1762545;80;21034;-69
2022/01/29 01:17:45;;;;;;;3.92;2.90;;;;;;;6.39;54.11;101482.73;1757539;80;21010;-68
2022/01/29 01:20:12;;;;;;;3.40;3.10;;;;;;;6.41;54.15;101487.48;1765112;80;21042;-68
2022/01/29 01:22:38;;;;;;;3.83;3.08;;;;;;;6.45;54.17;101487.10;1766191;80;21085;-69
2022/01/29 01:25:07;;;;;;;3.90;3.30;;;;;;;6.46;54.11;101496.15;1758913;80;21025;-69
2022/01/29 01:27:34;;;;;;;3.50;3.20;;;;;;;6.43;54.01;101492.23;1748396;80;21017;-70
2022/01/29 01:30:01;;;;;;;3.80;3.42;;;;;;;6.42;53.92;101495.69;1760004;80;21572;-69
2022/01/29 01:32:28;;;;;;;3.47;3.12;;;;;;;6.40;53.95;101496.11;1767317;80;21113;-69
2022/01/29 01:34:57;;;;;;;3.98;3.45;;;;;;;6.38;53.96;101502.98;1755427;80;21041;-68
2022/01/29 01:37:36;;;;;;;3.33;3.02;;;;;;;6.37;53.97;101505.13;1756006;80;21070;-68
2022/01/29 01:39:57;;;;;;;3.62;3.22;;;;;;;6.36;54.01;101508.58;1757185;80;21085;-69
2022/01/29 01:42:23;;;;;;;3.42;2.92;;;;;;;6.40;53.99;101510.75;1766658;80;21037;-69
2022/01/29 01:44:52;;;;;;;4.35;2.87;;;;;;;6.41;53.97;101512.04;1760509;80;20990;-69
2022/01/29 01:47:19;;;;;;;3.40;3.08;;;;;;;6.41;54.00;101517.21;1756802;80;20998;-69
2022/01/29 01:49:45;;;;;;;2.83;2.62;;;;;;;6.43;54.08;101512.92;1763344;80;21014;-69
2022/01/29 01:52:14;;;;;;;3.77;2.40;;;;;;;6.44;54.12;101517.25;1762689;80;21024;-69
2022/01/29 01:54:42;;;;;;;3.90;2.50;;;;;;;6.44;54.13;101518.55;1755794;80;21059;-69
2022/01/29 01:57:10;;;;;;;3.47;2.35;;;;;;;6.46;54.27;101519.42;1750554;80;21021;-68
2022/01/29 01:59:36;;;;;;;2.45;2.12;;;;;;;6.48;54.37;101520.30;1752553;80;21605;-69
2022/01/29 02:02:03;;;;;;;2.67;2.47;;;;;;;6.52;54.33;101520.75;1753594;80;21529;-69
2022/01/29 02:04:33;;;;;;;2.52;2.33;;;;;;;6.55;54.32;101527.22;1769200;81;21074;-68
2022/01/29 02:06:59;;;;;;;2.45;2.25;;;;;;;6.61;54.22;101532.88;1765420;80;21482;-69
2022/01/29 02:09:26;;;;;;;2.83;2.17;;;;;;;6.65;54.13;101531.17;1761787;80;21521;-71
2022/01/29 02:11:57;;;;;;;2.20;2.00;;;;;;;6.66;54.07;101530.33;1752016;80;21052;-70
2022/01/29 02:14:31;;;;;;;2.37;2.12;;;;;;;6.68;54.05;101529.46;1754835;80;21065;-69
2022/01/29 02:16:58;;;;;;;2.20;1.85;;;;;;;6.69;54.01;101527.75;1757577;80;21019;-69
2022/01/29 02:19:25;;;;;;;2.42;2.20;;;;;;;6.72;53.94;101536.83;1756151;80;21507;-68
2022/01/29 02:21:55;;;;;;;2.33;2.12;;;;;;;6.73;53.88;101536.83;1753206;80;21506;-69
2022/01/29 02:24:21;;;;;;;2.50;2.30;;;;;;;6.74;53.71;101537.70;1711262;83;21118;-69
2022/01/29 02:26:48;;;;;;;2.42;2.10;;;;;;;6.73;53.64;101537.25;1693970;83;21128;-69
2022/01/29 02:29:15;;;;;;;2.25;2.05;;;;;;;6.71;53.63;101537.67;1705178;83;21094;-69
2022/01/29 02:31:54;;;;;;;2.25;2.05;;;;;;;6.68;53.61;101543.69;1697087;83;21097;-69
2022/01/29 02:34:20;;;;;;;2.83;2.15;;;;;;;6.67;53.65;101552.31;1700518;83;21047;-68
2022/01/29 02:36:47;;;;;;;2.30;1.70;;;;;;;6.67;53.67;101552.73;1701381;82;21022;-68
2022/01/29 02:39:16;;;;;;;1.80;1.70;;;;;;;6.67;53.57;101553.61;1708430;81;21027;-68
2022/01/29 02:41:44;;;;;;;2.47;2.27;;;;;;;6.67;53.53;101565.24;1700549;83;21538;-68
2022/01/29 02:44:15;;;;;;;1.98;1.87;;;;;;;6.67;53.50;101567.83;1710864;83;21085;-69
2022/01/29 02:46:48;;;;;;;2.08;1.87;;;;;;;6.65;53.50;101573.84;1698230;83;22540;-69
2022/01/29 02:49:09;;;;;;;1.90;1.80;;;;;;;6.63;53.49;101576.84;1705748;81;21023;-69
2022/01/29 02:51:49;;;;;;;1.70;1.60;;;;;;;6.62;53.62;101580.27;1707865;83;21065;-69
2022/01/29 02:54:16;;;;;;;2.15;1.85;;;;;;;6.61;53.75;101574.67;1632697;86;21082;-69
2022/01/29 02:56:43;;;;;;;2.55;1.65;;;;;;;6.59;53.85;101572.92;1688460;84;21063;-69
2022/01/29 02:59:11;;;;;;;1.92;1.80;;;;;;;6.61;53.88;101578.13;1686022;84;21590;-69
2022/01/29 03:01:37;;;;;;;2.02;1.82;;;;;;;6.63;53.84;101575.55;1694177;84;21027;-69
2022/01/29 03:04:04;;;;;;;1.90;1.67;;;;;;;6.64;53.87;101574.67;1693063;84;21078;-68
2022/01/29 03:06:33;;;;;;;2.25;2.05;;;;;;;6.66;53.76;101576.88;1684987;84;21070;-69
2022/01/29 03:09:00;;;;;;;2.35;2.15;;;;;;;6.65;53.74;101582.89;1686354;84;21074;-68
2022/01/29 03:11:28;;;;;;;2.20;2.00;;;;;;;6.63;53.75;101573.84;1692754;84;21040;-69
2022/01/29 03:13:55;;;;;;;2.50;2.30;;;;;;;6.63;53.70;101572.97;1684914;84;21593;-69
2022/01/29 03:16:21;;;;;;;2.50;2.30;;;;;;;6.61;53.69;101577.26;1686441;83;21065;-69
2022/01/29 03:18:48;;;;;;;2.00;1.90;;;;;;;6.58;53.67;101582.84;1693862;84;21094;-69
2022/01/29 03:21:16;;;;;;;2.58;1.90;;;;;;;6.57;53.68;101584.14;1695644;84;21124;-69
2022/01/29 03:23:43;;;;;;;2.50;2.17;;;;;;;6.56;53.71;101588.44;1693949;84;21111;-68
2022/01/29 03:26:09;;;;;;;2.20;1.92;;;;;;;6.56;53.70;101585.84;1684596;84;21067;-69
2022/01/29 03:28:36;;;;;;;3.15;2.50;;;;;;;6.59;53.63;101590.19;1721780;82;21046;-69
2022/01/29 03:31:03;;;;;;;2.40;2.20;;;;;;;6.59;53.54;101598.78;1695794;83;21081;-69
2022/01/29 03:33:30;;;;;;;3.77;2.40;;;;;;;6.58;53.45;101594.48;1692361;83;21043;-69
2022/01/29 03:35:56;;;;;;;2.27;2.08;;;;;;;6.59;53.34;101601.82;1689651;83;21137;-69
2022/01/29 03:38:24;;;;;;;2.83;1.95;;;;;;;6.57;53.35;101599.20;1686654;83;21018;-68
2022/01/29 03:40:51;;;;;;;4.92;3.40;;;;;;;6.57;53.36;101604.38;1772876;80;21026;-68
2022/01/29 03:43:27;;;;;;;3.70;2.45;;;;;;;6.57;53.38;101599.66;1757207;80;20998;-69
2022/01/29 03:45:46;;;;;;;2.58;2.37;;;;;;;6.58;53.23;101600.08;1743787;80;21018;-68
2022/01/29 03:48:12;;;;;;;2.27;2.08;;;;;;;6.57;53.04;101606.95;1750412;81;21081;-69
2022/01/29 03:50:39;;;;;;;2.20;2.00;;;;;;;6.56;52.91;101609.13;1753194;81;21066;-69
2022/01/29 03:53:06;;;;;;;2.42;2.20;;;;;;;6.53;52.78;101603.91;1753579;80;21100;-68
2022/01/29 03:55:32;;;;;;;2.42;2.22;;;;;;;6.49;52.77;101600.86;1759879;80;21482;-69
2022/01/29 03:57:59;;;;;;;2.62;2.30;;;;;;;6.45;52.81;101608.16;1757507;80;21057;-69
2022/01/29 04:00:25;;;;;;;2.40;2.20;;;;;;;6.40;52.88;101613.73;1767928;80;21096;-69
2022/01/29 04:02:51;;;;;;;2.62;2.42;;;;;;;6.35;52.92;101616.69;1754313;80;21034;-69
2022/01/29 04:05:18;;;;;;;2.55;2.30;;;;;;;6.31;53.04;101617.51;1754902;80;21062;-69
2022/01/29 04:07:45;;;;;;;2.75;2.52;;;;;;;6.27;53.09;101622.63;1760971;80;21021;-69
2022/01/29 04:10:12;;;;;;;2.40;2.20;;;;;;;6.24;53.13;101633.83;1741912;80;21097;-69
2022/01/29 04:12:45;;;;;;;3.35;2.70;;;;;;;6.22;53.12;101639.83;1752175;80;21026;-69
2022/01/29 04:15:09;;;;;;;2.67;2.47;;;;;;;6.20;53.07;101647.55;1755340;80;21029;-69
2022/01/29 04:17:36;;;;;;;2.80;2.58;;;;;;;6.18;53.09;101654.41;1736312;80;21553;-69
2022/01/29 04:20:05;;;;;;;2.50;2.30;;;;;;;6.16;53.09;101650.95;1756195;80;21037;-68
2022/01/29 04:22:31;;;;;;;2.60;2.40;;;;;;;6.14;53.01;101662.98;1691223;83;21062;-69
2022/01/29 04:24:58;;;;;;;7.25;4.08;;;;;;;6.12;52.97;101664.69;1689421;83;21678;-69
2022/01/29 04:27:34;;;;;;;4.05;2.55;;;;;;;6.11;52.94;101669.84;1685049;84;21022;-68
2022/01/29 04:32:30;;;;;;;3.22;2.60;;;;;;;6.06;52.85;101674.95;1636849;87;21137;-69
2022/01/29 04:34:49;;;;;;;2.35;2.15;;;;;;;6.04;52.79;101675.81;1632023;86;21022;-69
2022/01/29 04:37:15;;;;;;;3.17;2.87;;;;;;;6.00;52.73;101674.89;1590568;89;21646;-68
2022/01/29 04:39:43;;;;;;;3.10;2.70;;;;;;;5.99;52.72;101689.09;1576884;89;21115;-69
2022/01/29 04:42:09;;;;;;;3.10;2.60;;;;;;;5.96;52.80;101692.50;1584357;90;21591;-69
2022/01/29 04:44:36;;;;;;;3.65;2.80;;;;;;;5.94;52.75;101690.32;1579452;90;21647;-69
2022/01/29 04:47:03;;;;;;;3.10;2.72;;;;;;;5.93;52.84;101693.77;1636864;87;21033;-68
2022/01/29 04:49:30;;;;;;;3.55;2.80;;;;;;;5.92;52.77;101697.19;1635105;87;21107;-68
2022/01/29 04:51:56;;;;;;;3.27;2.98;;;;;;;5.90;52.74;101693.72;1603390;89;21034;-69
2022/01/29 04:54:22;;;;;;;3.20;2.83;;;;;;;5.88;52.67;101700.58;1597837;89;21145;-68
2022/01/29 04:56:49;;;;;;;3.27;2.98;;;;;;;5.85;52.55;101696.69;1598490;89;21822;-69
2022/01/29 04:59:15;;;;;;;3.10;2.80;;;;;;;5.83;52.60;101702.23;1592973;90;21030;-68
2022/01/29 05:01:43;;;;;;;3.52;2.50;;;;;;;5.81;52.53;101703.92;1602189;89;21074;-69
2022/01/29 05:04:09;;;;;;;3.52;2.83;;;;;;;5.75;52.56;101701.23;1633431;87;21165;-68
2022/01/29 05:06:35;;;;;;;3.50;3.20;;;;;;;5.75;52.56;101706.39;1634771;87;21064;-68
2022/01/29 05:09:03;;;;;;;3.52;2.92;;;;;;;5.72;52.56;101714.13;1593909;89;21131;-69
2022/01/29 05:11:30;;;;;;;3.27;2.98;;;;;;;5.70;52.48;101721.86;1635008;87;21564;-69
2022/01/29 05:13:56;;;;;;;3.72;2.85;;;;;;;5.67;52.45;101726.09;1629171;87;21608;-69
2022/01/29 05:16:44;;;;;;;4.37;3.50;;;;;;;5.65;52.50;101727.78;1602955;89;22158;-69
2022/01/29 05:27:16;;;;;;;3.85;3.17;;;;;;;5.55;52.88;101749.16;1670739;85;21553;-68
2022/01/29 05:29:44;;;;;;;4.20;3.12;;;;;;;5.53;53.06;101753.43;1721896;82;21506;-68
2022/01/29 05:32:12;;;;;;;4.60;3.20;;;;;;;5.52;53.21;101751.71;1763031;80;21019;-68
2022/01/29 05:34:40;;;;;;;3.45;3.15;;;;;;;5.51;53.39;101756.41;1749160;80;21038;-70
2022/01/29 05:37:07;;;;;;;4.28;3.50;;;;;;;5.51;53.34;101757.70;1761837;80;21026;-68
2022/01/29 05:39:33;;;;;;;4.83;3.27;;;;;;;5.47;53.39;101758.51;1769152;80;21018;-69
2022/01/29 05:42:00;;;;;;;3.17;2.60;;;;;;;5.42;53.53;101766.17;1753469;80;20999;-69
2022/01/29 05:44:26;;;;;;;3.00;2.58;;;;;;;5.38;53.74;101770.84;1759818;80;21010;-69
2022/01/29 05:46:53;;;;;;;3.47;3.17;;;;;;;5.36;53.78;101783.27;1745055;80;21011;-69
2022/01/29 05:49:19;;;;;;;5.22;3.50;;;;;;;5.35;53.82;101786.72;1755727;80;21632;-69
2022/01/29 05:51:45;;;;;;;3.50;3.17;;;;;;;5.32;53.91;101789.23;1763060;80;21526;-69
2022/01/29 05:54:12;;;;;;;3.30;2.70;;;;;;;5.31;54.01;101797.83;1764175;80;20974;-69
2022/01/29 05:56:39;;;;;;;3.42;2.90;;;;;;;5.30;54.19;101801.24;1747981;80;21580;-70
2022/01/29 05:59:06;;;;;;;3.50;2.90;;;;;;;5.29;54.30;101802.10;1750852;80;21092;-69
2022/01/29 06:01:32;;;;;;;3.05;2.77;;;;;;;5.30;54.45;101798.66;1756429;80;21041;-69
2022/01/29 06:03:58;;;;;;;3.02;2.70;;;;;;;5.33;54.53;101806.47;1752146;81;21035;-69
2022/01/29 06:06:25;;;;;;;3.35;2.83;;;;;;;5.35;54.59;101812.11;1769912;80;21010;-70
2022/01/29 06:08:52;;;;;;;4.65;3.20;;;;;;;5.38;54.65;101821.17;1754270;80;21043;-70
2022/01/29 06:11:21;;;;;;;2.95;2.72;;;;;;;5.42;54.67;101819.53;1745309;80;21117;-71
2022/01/29 06:13:48;;;;;;;2.85;2.50;;;;;;;5.45;54.69;101822.15;1755905;80;21057;-69
2022/01/29 06:16:14;;;;;;;3.10;2.80;;;;;;;5.48;54.73;101823.50;1762797;80;21005;-68
2022/01/29 06:18:41;;;;;;;4.12;2.72;;;;;;;5.54;54.69;101826.18;1770145;80;21010;-69
2022/01/29 06:21:09;;;;;;;3.52;2.80;;;;;;;5.61;54.63;101829.28;1757598;80;21006;-69
2022/01/29 06:23:37;;;;;;;3.77;2.83;;;;;;;5.64;54.61;101824.18;1754420;80;21541;-69
2022/01/29 06:26:06;;;;;;;3.65;2.75;;;;;;;5.66;54.65;101827.66;1760188;80;21010;-69
2022/01/29 06:28:34;;;;;;;3.70;2.80;;;;;;;5.68;54.72;101832.00;1763186;80;21530;-68
2022/01/29 06:31:02;;;;;;;4.37;2.95;;;;;;;5.74;54.78;101828.63;1770398;80;21517;-68
2022/01/29 06:33:28;;;;;;;3.98;2.90;;;;;;;5.79;54.77;101835.59;1757887;80;21069;-69
2022/01/29 06:35:55;;;;;;;2.95;2.47;;;;;;;5.84;54.80;101834.41;1740177;81;21071;-69
2022/01/29 06:38:21;;;;;;;4.10;2.67;;;;;;;5.88;54.71;101837.48;1759635;80;20970;-69
2022/01/29 06:40:49;;;;;;;4.22;2.83;;;;;;;5.93;54.68;101842.30;1762099;80;21443;-69
2022/01/29 06:43:15;;;;;;;2.60;2.40;;;;;;;5.97;54.63;101839.33;1752234;80;21545;-68
2022/01/29 06:45:44;;;;;;;2.67;2.47;;;;;;;6.03;54.63;101843.29;1760665;80;21011;-69
2022/01/29 06:48:11;;;;;;;3.95;2.67;;;;;;;6.09;54.59;101851.13;1752957;80;21025;-69
2022/01/29 06:50:38;;;;;;;3.20;2.90;;;;;;;6.13;54.52;101855.07;1744467;80;21038;-70
2022/01/29 06:53:05;;;;;;;4.03;3.00;;;;;;;6.19;54.41;101856.86;1748860;80;21042;-69
2022/01/29 06:55:32;;;;;;;6.17;2.92;;;;;;;6.22;54.41;101856.47;1733220;80;21069;-69
2022/01/29 06:57:59;;;;;;;4.70;2.80;;;;;;;6.25;54.42;101861.69;1761947;80;21054;-68
2022/01/29 07:00:25;;;;;;;3.58;2.33;;;;;;;6.29;54.39;101864.77;1751439;81;21535;-69
2022/01/29 07:02:52;;;;;;;3.00;2.58;;;;;;;6.33;54.53;101860.48;1756070;80;21536;-69
2022/01/29 07:05:18;;;;;;;3.95;2.87;;;;;;;6.38;54.48;101866.19;1770087;80;21553;-68
2022/01/29 07:07:44;;;;;;;2.70;2.45;;;;;;;6.43;54.43;101862.34;1746766;80;20987;-69
2022/01/29 07:10:11;;;;;;;4.83;2.77;;;;;;;6.46;54.36;101865.86;1744194;80;21030;-69
2022/01/29 07:12:38;;;;;;;3.15;2.45;;;;;;;6.49;54.33;101871.05;1748100;80;20994;-69
2022/01/29 07:15:10;;;;;;;2.92;2.62;;;;;;;6.51;54.30;101871.94;1743452;80;21086;-70
2022/01/29 07:17:36;;;;;;;3.72;2.92;;;;;;;6.53;54.35;101882.32;1750596;80;21546;-69
2022/01/29 07:20:04;;;;;;;2.77;2.40;;;;;;;6.58;54.22;101884.10;1772486;80;21435;-69
2022/01/29 07:22:31;;;;;;;3.33;2.83;;;;;;;6.62;54.25;101892.76;1751513;80;21014;-69
2022/01/29 07:24:57;;;;;;;3.12;2.52;;;;;;;6.67;54.09;101885.06;1744267;80;21544;-70
2022/01/29 07:27:23;;;;;;;2.80;2.27;;;;;;;6.70;53.98;101888.99;1760745;80;21506;-68
2022/01/29 07:29:50;;;;;;;3.33;2.47;;;;;;;6.70;54.01;101887.25;1763721;80;21022;-70
2022/01/29 07:32:17;;;;;;;3.40;2.40;;;;;;;6.72;53.97;101883.41;1766936;80;21490;-69
2022/01/29 07:34:44;;;;;;;2.77;2.20;;;;;;;6.74;53.98;101878.67;1764661;80;21046;-69
2022/01/29 07:37:10;;;;;;;3.10;2.80;;;;;;;6.77;54.01;101877.85;1756064;80;20986;-70
2022/01/29 07:39:37;;;;;;;3.02;2.17;;;;;;;6.79;53.96;101885.20;1761514;80;21125;-71
2022/01/29 07:42:05;;;;;;;3.20;2.60;;;;;;;6.81;53.93;101886.97;1752928;80;21100;-70
2022/01/29 07:44:32;;;;;;;3.80;2.72;;;;;;;6.84;53.92;101896.48;1747315;80;21032;-71
2022/01/29 07:46:58;;;;;;;2.85;2.47;;;;;;;6.86;53.97;101901.25;1760926;80;21094;-69
2022/01/29 07:49:24;;;;;;;3.17;2.83;;;;;;;6.89;53.95;101910.33;1744150;81;21011;-69
2022/01/29 07:51:51;;;;;;;4.30;2.80;;;;;;;6.92;53.94;101911.25;1754306;80;21502;-69
2022/01/29 07:54:17;;;;;;;3.45;2.80;;;;;;;6.96;53.88;101913.44;1760237;80;21521;-70
2022/01/29 07:56:44;;;;;;;4.12;2.80;;;;;;;6.98;53.75;101916.91;1750029;80;20998;-69
2022/01/29 07:59:10;;;;;;;4.28;2.70;;;;;;;6.99;53.70;101910.87;1764901;80;21005;-70
2022/01/29 08:01:37;;;;;;;2.77;2.50;;;;;;;7.00;53.69;101916.50;1741156;81;21061;-69
2022/01/29 08:04:05;;;;;;;3.25;2.52;;;;;;;7.02;53.70;101923.86;1752968;80;21168;-69
2022/01/29 08:06:32;;;;;;;3.02;2.72;;;;;;;7.04;53.67;101930.80;1761609;80;21100;-68
2022/01/29 08:08:59;;;;;;;3.72;2.25;;;;;;;7.08;53.61;101926.52;1758900;81;21007;-69
2022/01/29 08:11:26;;;;;;;2.85;2.45;;;;;;;7.10;53.52;101924.80;1755710;80;21117;-69
2022/01/29 08:13:52;;;;;;;3.45;2.67;;;;;;;7.13;53.54;101931.33;1766930;80;21047;-69
2022/01/29 08:16:19;;;;;;;2.37;2.10;;;;;;;7.18;53.41;101934.81;1753673;80;21038;-70
2022/01/29 08:18:46;;;;;;;3.12;2.10;;;;;;;7.21;53.25;101934.86;1754408;80;21080;-69
2022/01/29 08:21:15;;;;;;;3.00;2.55;;;;;;;7.23;53.21;101940.92;1761235;80;21055;-69
2022/01/29 08:23:42;;;;;;;2.27;2.08;;;;;;;7.26;53.15;101940.94;1674887;84;21063;-70
2022/01/29 08:26:08;;;;;;;2.33;1.92;;;;;;;7.31;53.08;101945.75;1669401;84;21585;-71
2022/01/29 08:28:35;;;;;;;2.65;2.02;;;;;;;7.33;52.93;101950.52;1661737;84;21065;-73
2022/01/29 08:31:02;;;;;;;2.87;2.10;;;;;;;7.35;52.86;101951.41;1649495;85;21075;-71
2022/01/29 08:33:29;;;;;;;2.92;2.10;;;;;;;7.37;52.82;101954.88;1666027;85;21024;-71
2022/01/29 08:35:57;;;;;;;2.35;2.15;;;;;;;7.41;52.75;101959.23;1610469;87;21594;-71
2022/01/29 08:38:25;;;;;;;4.62;2.20;;;;;;;7.45;52.66;101966.17;1675166;83;21101;-71
2022/01/29 08:40:53;;;;;;;2.90;2.20;;;;;;;7.47;52.58;101968.77;1662877;85;21036;-69
2022/01/29 08:43:19;;;;;;;3.15;2.20;;;;;;;7.51;52.50;101963.65;1669067;84;21102;-71
2022/01/29 08:45:46;;;;;;;2.37;2.17;;;;;;;7.54;52.40;101967.58;1676700;84;21070;-71
2022/01/29 08:48:12;;;;;;;2.33;2.10;;;;;;;7.56;52.29;101972.34;1673622;84;21055;-71
2022/01/29 08:50:39;;;;;;;2.72;2.30;;;;;;;7.59;52.25;101981.42;1688783;83;21073;-72
2022/01/29 08:53:05;;;;;;;2.00;1.82;;;;;;;7.60;52.31;101974.11;1674236;83;21056;-70
2022/01/29 08:55:36;;;;;;;2.62;2.00;;;;;;;7.61;52.20;101975.83;1657746;85;21045;-70
2022/01/29 08:58:00;;;;;;;2.40;2.08;;;;;;;7.62;52.22;101980.17;1674749;84;21570;-72
2022/01/29 09:00:26;;;;;;;2.77;2.05;;;;;;;7.64;51.99;101979.77;1662438;84;21158;-69
2022/01/29 09:02:53;;;;;;;2.72;1.92;;;;;;;7.66;51.89;101981.06;1663066;84;21071;-71
2022/01/29 09:05:20;;;;;;;3.95;2.40;;;;;;;7.68;51.72;101989.72;1681903;83;21137;-71
2022/01/29 09:07:47;;;;;;;2.87;2.10;;;;;;;7.70;51.69;101991.47;1681018;84;21059;-72
2022/01/29 09:10:14;;;;;;;2.15;1.80;;;;;;;7.72;51.65;101993.66;1657796;84;21489;-72
2022/01/29 09:12:41;;;;;;;2.22;2.02;;;;;;;7.74;51.60;101984.17;1659836;84;21562;-70
2022/01/29 09:15:08;;;;;;;2.40;1.62;;;;;;;7.78;51.46;101976.86;1674025;83;21533;-71
2022/01/29 09:17:39;;;;;;;2.92;2.00;;;;;;;7.83;51.32;101976.46;1673581;83;21119;-70
2022/01/29 09:20:06;;;;;;;3.12;2.00;;;;;;;7.88;51.22;101977.80;1708343;80;21034;-72
2022/01/29 09:22:33;;;;;;;2.42;1.92;;;;;;;7.94;51.18;101976.56;1762319;80;21506;-71
2022/01/29 09:24:59;;;;;;;3.00;2.33;;;;;;;7.98;51.16;101975.30;1751979;80;21010;-71
2022/01/29 09:27:26;;;;;;;2.58;2.20;;;;;;;8.02;51.10;101969.29;1741244;80;21015;-72
2022/01/29 09:29:52;;;;;;;2.95;2.08;;;;;;;8.07;50.81;101975.39;1736438;81;20995;-70
2022/01/29 09:32:18;;;;;;;2.75;1.77;;;;;;;8.10;50.62;101981.88;1756541;80;21049;-71
2022/01/29 09:34:45;;;;;;;2.20;2.00;;;;;;;8.12;50.49;101980.59;1762701;80;21018;-73
2022/01/29 09:37:11;;;;;;;3.45;1.98;;;;;;;8.13;50.49;101983.22;1749521;80;20991;-68
2022/01/29 09:39:38;;;;;;;2.72;2.10;;;;;;;8.15;50.27;101985.81;1748166;81;20999;-73
2022/01/29 09:42:06;;;;;;;2.37;1.65;;;;;;;8.17;50.24;101982.37;1741645;80;21026;-71
2022/01/29 09:44:34;;;;;;;2.35;1.80;;;;;;;8.20;50.02;101981.09;1746982;80;21396;-71
2022/01/29 09:47:04;;;;;;;3.12;2.20;;;;;;;8.23;49.66;101983.72;1754433;80;21088;-70
2022/01/29 09:49:33;;;;;;;3.15;2.40;;;;;;;8.29;49.44;101976.86;1744516;80;22651;-70
2022/01/29 09:52:03;;;;;;;2.15;1.95;;;;;;;8.32;49.31;101977.77;1731235;81;21023;-70
2022/01/29 09:54:30;;;;;;;2.77;2.25;;;;;;;8.35;49.17;101979.07;1706930;82;21022;-70
2022/01/29 09:56:56;;;;;;;1.77;1.55;;;;;;;8.40;48.88;101977.81;1748331;81;21070;-69
2022/01/29 09:59:23;;;;;;;1.85;1.50;;;;;;;8.42;48.52;101979.98;1700662;83;21508;-71
2022/01/29 10:01:50;;;;;;;2.45;1.62;;;;;;;8.43;48.18;101967.02;1661770;84;21118;-69
2022/01/29 10:04:17;;;;;;;2.15;1.67;;;;;;;8.45;48.08;101969.64;1739523;81;21088;-66
2022/01/29 10:06:47;;;;;;;2.33;1.50;;;;;;;8.48;47.99;101967.05;1735912;81;21739;-72
2022/01/29 10:09:33;;;;;;;1.70;1.60;;;;;;;8.50;48.04;101962.73;1723066;81;21050;-71
2022/01/29 10:12:26;;;;;;;2.60;1.80;;;;;;;8.53;47.97;101960.17;1742750;81;21042;-74
2022/01/29 10:15:03;;;;;;;2.00;1.42;;;;;;;8.55;47.68;101958.45;1677072;83;21086;-73
2022/01/29 10:17:51;;;;;;;1.90;1.30;;;;;;;8.62;47.51;101964.98;1637941;86;21149;-70
2022/01/29 10:20:27;;;;;;;2.25;1.50;;;;;;;8.66;47.23;101964.12;1641976;85;21560;-73
2022/01/29 10:22:58;;;;;;;2.72;1.87;;;;;;;8.67;47.04;101966.30;1621816;86;21672;-71
2022/01/29 10:25:30;;;;;;;1.95;1.40;;;;;;;8.73;47.03;101965.91;1587413;89;21093;-71
2022/01/29 10:28:20;;;;;;;1.40;1.30;;;;;;;8.76;46.57;101969.80;1536002;92;21595;-72
2022/01/29 10:31:00;;;;;;;2.25;1.20;;;;;;;8.78;46.26;101972.39;1565316;90;21104;-69
2022/01/29 10:33:31;;;;;;;2.33;1.40;;;;;;;8.77;45.87;101968.08;1564594;90;21100;-71
2022/01/29 10:36:05;;;;;;;1.67;1.30;;;;;;;8.74;45.76;101978.43;1547314;90;21095;-70
2022/01/29 10:38:50;;;;;;;2.65;1.10;;;;;;;8.70;45.87;101967.59;1469122;96;21150;-71
2022/01/29 10:41:26;;;;;;;1.50;1.17;;;;;;;8.67;45.77;101972.37;1472054;95;21154;-70
2022/01/29 10:44:15;;;;;;;1.52;1.25;;;;;;;8.64;45.53;101975.35;1480071;96;21134;-71
2022/01/29 10:46:48;;;;;;;1.72;1.12;;;;;;;8.58;45.42;101979.21;1482381;95;21131;-71
2022/01/29 10:49:28;;;;;;;2.12;1.52;;;;;;;8.58;45.59;101974.02;1480981;95;21101;-69
2022/01/29 10:52:07;;;;;;;1.50;1.30;;;;;;;8.58;45.69;101965.81;1456461;97;21127;-74
2022/01/29 10:54:36;;;;;;;2.00;1.50;;;;;;;8.57;45.46;101967.12;1469831;95;21093;-71
2022/01/29 10:57:06;;;;;;;2.05;1.62;;;;;;;8.54;45.12;101970.97;1492591;95;21082;-71
2022/01/29 10:59:36;;;;;;;2.27;1.42;;;;;;;8.53;45.20;101977.04;1485915;95;21065;-72
2022/01/29 11:02:07;;;;;;;1.57;1.47;;;;;;;8.54;45.34;101985.24;1490452;94;21101;-70
2022/01/29 11:04:36;;;;;;;1.70;1.25;;;;;;;8.54;45.42;101982.23;1459610;96;21761;-70
2022/01/29 11:07:09;;;;;;;1.75;1.20;;;;;;;8.57;45.15;101980.09;1466844;96;21122;-68
2022/01/29 11:09:34;;;;;;;1.60;1.30;;;;;;;8.58;45.13;101983.10;1454947;96;21653;-72
2022/01/29 11:12:05;;;;;;;2.17;1.40;;;;;;;8.57;45.13;101983.98;1457144;95;21915;-71
2022/01/29 11:14:32;;;;;;;1.50;1.07;;;;;;;8.56;45.42;101984.82;1452049;96;21150;-71
2022/01/29 11:16:59;;;;;;;1.52;1.07;;;;;;;8.57;45.05;101987.88;1462130;96;21127;-71
2022/01/29 11:19:26;;;;;;;1.10;1.00;;;;;;;8.50;45.30;101988.67;1463217;96;21197;-70
2022/01/29 11:21:54;;;;;;;1.90;1.30;;;;;;;8.50;45.29;101988.67;1476819;93;21241;-73
2022/01/29 11:24:23;;;;;;;1.57;1.47;;;;;;;8.48;45.29;101990.39;1553743;90;21128;-70
2022/01/29 11:26:50;;;;;;;1.87;1.52;;;;;;;8.46;45.20;101992.11;1598596;88;21062;-70
2022/01/29 11:29:32;;;;;;;1.92;1.50;;;;;;;8.43;45.49;101998.59;1599241;88;21090;-70
2022/01/29 11:32:25;;;;;;;1.60;1.30;;;;;;;8.40;45.70;101997.26;1592953;88;21182;-70
2022/01/29 11:35:15;;;;;;;2.45;1.50;;;;;;;8.37;45.77;102005.88;1604324;88;21083;-71
2022/01/29 11:38:06;;;;;;;2.15;1.22;;;;;;;8.36;46.01;102003.28;1597579;88;22601;-72
2022/01/29 11:40:44;;;;;;;1.00;0.90;;;;;;;8.34;45.96;101998.52;1601282;88;21577;-70
2022/01/29 11:43:22;;;;;;;1.50;1.40;;;;;;;8.32;46.04;101996.34;1743182;80;21498;-70
2022/01/29 11:46:05;;;;;;;1.40;1.30;;;;;;;8.32;46.00;102006.72;1748783;80;21045;-70
2022/01/29 11:48:50;;;;;;;2.17;1.32;;;;;;;8.31;45.96;102010.15;1761627;80;21453;-72
2022/01/29 11:51:10;;;;;;;2.17;1.65;;;;;;;8.28;46.10;102012.31;1745139;80;21053;-71